createdAt,value
2022-09-10T00:02:01.833Z,7.50
2022-09-10T00:04:29.165Z,7.61
2022-09-10T00:06:56.842Z,6.97
2022-09-10T00:09:24.010Z,7.62
2022-09-10T00:11:51.000Z,7.62
2022-09-10T00:14:23.394Z,7.53
2022-09-10T00:16:50.779Z,7.15
2022-09-10T00:19:19.685Z,7.59
2022-09-10T00:21:46.773Z,7.57
2022-09-10T00:24:14.233Z,7.35
2022-09-10T00:26:41.951Z,7.39
2022-09-10T00:29:12.066Z,7.56
2022-09-10T00:31:40.183Z,7.57
2022-09-10T00:34:09.249Z,7.54
2022-09-10T00:36:42.195Z,7.35
2022-09-10T00:39:15.191Z,7.10
2022-09-10T00:41:44.927Z,6.96
2022-09-10T00:44:40.057Z,7.60
2022-09-10T00:47:34.260Z,7.51
2022-09-10T00:50:07.211Z,7.46
2022-09-10T00:52:39.392Z,7.32
2022-09-10T00:55:08.853Z,7.41
2022-09-10T00:57:36.284Z,6.86
2022-09-10T01:00:09.877Z,6.33
2022-09-10T01:02:37.028Z,7.36
2022-09-10T01:05:04.913Z,7.29
2022-09-10T01:07:33.187Z,7.33
2022-09-10T01:10:05.237Z,7.36
2022-09-10T01:12:54.227Z,6.31
2022-09-10T01:15:51.125Z,7.40
2022-09-10T01:18:49.675Z,7.38
2022-09-10T01:21:28.753Z,7.46
2022-09-10T01:24:18.662Z,7.34
2022-09-10T01:27:06.299Z,7.27
2022-09-10T01:29:57.677Z,7.16
2022-09-10T01:32:49.195Z,6.69
2022-09-10T01:35:25.468Z,6.69
2022-09-10T01:37:59.897Z,7.15
2022-09-10T01:40:30.448Z,7.08
2022-09-10T01:43:07.936Z,7.07
2022-09-10T01:46:01.152Z,7.15
2022-09-10T01:48:43.239Z,7.07
2022-09-10T01:51:36.975Z,7.12
2022-09-10T01:54:30.973Z,7.07
2022-09-10T01:57:24.774Z,6.64
2022-09-10T01:59:54.816Z,7.02
2022-09-10T02:02:28.946Z,6.38
2022-09-10T02:04:58.205Z,6.28
2022-09-10T02:07:26.824Z,6.32
2022-09-10T02:09:55.786Z,6.70
2022-09-10T02:12:24.768Z,6.56
2022-09-10T02:15:12.775Z,6.52
2022-09-10T02:17:56.120Z,6.85
2022-09-10T02:20:23.448Z,6.80
2022-09-10T02:22:58.816Z,6.01
2022-09-10T02:25:33.465Z,6.71
2022-09-10T02:28:03.431Z,6.96
2022-09-10T02:30:30.764Z,6.84
2022-09-10T02:32:58.033Z,6.72
2022-09-10T02:35:25.746Z,6.29
2022-09-10T02:37:53.531Z,6.75
2022-09-10T02:40:20.645Z,6.70
2022-09-10T02:42:47.832Z,6.78
2022-09-10T02:45:19.414Z,6.68
2022-09-10T02:47:46.438Z,6.76
2022-09-10T02:50:16.031Z,6.70
2022-09-10T02:52:46.184Z,6.75
2022-09-10T02:55:14.075Z,6.77
2022-09-10T02:57:42.532Z,6.72
2022-09-10T03:00:11.169Z,6.73
2022-09-10T03:02:38.232Z,6.74
2022-09-10T03:05:18.341Z,6.68
2022-09-10T03:07:51.678Z,6.65
2022-09-10T03:10:18.754Z,6.64
2022-09-10T03:12:45.906Z,6.68
2022-09-10T03:15:12.950Z,6.68
2022-09-10T03:17:39.949Z,6.67
2022-09-10T03:20:07.897Z,6.40
2022-09-10T03:22:35.778Z,6.69
2022-09-10T03:25:02.925Z,6.70
2022-09-10T03:27:30.859Z,6.69
2022-09-10T03:29:57.992Z,5.60
2022-09-10T03:32:25.100Z,6.65
2022-09-10T03:34:53.162Z,6.17
2022-09-10T03:37:20.209Z,6.57
2022-09-10T03:39:47.326Z,6.71
2022-09-10T03:42:16.634Z,6.78
2022-09-10T03:44:43.942Z,6.71
2022-09-10T03:47:12.361Z,4.94
2022-09-10T03:49:40.065Z,6.78
2022-09-10T03:52:08.004Z,6.85
2022-09-10T03:54:37.368Z,6.78
2022-09-10T03:57:04.902Z,6.65
2022-09-10T03:59:32.722Z,6.81
2022-09-10T04:02:03.044Z,6.92
2022-09-10T04:04:32.006Z,6.99
2022-09-10T04:06:59.133Z,6.98
2022-09-10T04:09:26.064Z,7.11
2022-09-10T04:11:53.096Z,7.10
2022-09-10T04:14:22.599Z,6.83
2022-09-10T04:16:49.850Z,7.35
2022-09-10T04:19:18.471Z,7.37
2022-09-10T04:21:48.591Z,7.04
2022-09-10T04:24:15.632Z,6.85
2022-09-10T04:26:42.669Z,7.58
2022-09-10T04:29:13.330Z,7.59
2022-09-10T04:31:41.377Z,7.62
2022-09-10T04:34:13.145Z,6.79
2022-09-10T04:36:40.504Z,7.75
2022-09-10T04:39:09.021Z,7.91
2022-09-10T04:41:37.082Z,8.05
2022-09-10T04:44:06.491Z,8.08
2022-09-10T04:46:35.137Z,7.59
2022-09-10T04:49:03.625Z,8.29
2022-09-10T04:51:33.572Z,8.28
2022-09-10T04:54:01.928Z,8.48
2022-09-10T04:56:36.765Z,8.58
2022-09-10T04:59:05.060Z,8.42
2022-09-10T05:01:35.739Z,8.82
2022-09-10T05:04:04.546Z,8.17
2022-09-10T05:06:33.105Z,8.92
2022-09-10T05:09:00.113Z,9.14
2022-09-10T05:11:27.565Z,9.16
2022-09-10T05:13:54.713Z,9.04
2022-09-10T05:16:25.781Z,9.03
2022-09-10T05:18:53.410Z,9.55
2022-09-10T05:21:20.931Z,9.63
2022-09-10T05:23:48.122Z,9.67
2022-09-10T05:26:15.404Z,9.32
2022-09-10T05:28:42.852Z,9.95
2022-09-10T05:31:13.769Z,9.87
2022-09-10T05:33:43.468Z,10.15
2022-09-10T05:36:13.056Z,10.26
2022-09-10T05:38:41.428Z,10.33
2022-09-10T05:41:12.157Z,10.49
2022-09-10T05:43:43.753Z,10.56
2022-09-10T05:46:11.705Z,10.47
2022-09-10T05:48:41.886Z,10.66
2022-09-10T05:51:10.896Z,10.83
2022-09-10T05:53:39.005Z,10.90
2022-09-10T05:56:07.472Z,10.72
2022-09-10T05:58:36.197Z,11.21
2022-09-10T06:01:03.789Z,10.83
2022-09-10T06:03:32.181Z,11.34
2022-09-10T06:06:01.817Z,12.20
2022-09-10T06:08:33.273Z,12.87
2022-09-10T06:11:07.063Z,13.48
2022-09-10T06:13:42.356Z,13.93
2022-09-10T06:16:09.981Z,15.02
2022-09-10T06:18:37.659Z,15.45
2022-09-10T06:21:15.699Z,15.60
2022-09-10T06:23:44.999Z,15.35
2022-09-10T06:26:20.150Z,14.93
2022-09-10T06:28:53.077Z,14.74
2022-09-10T06:31:20.290Z,14.76
2022-09-10T06:33:50.212Z,14.75
2022-09-10T06:36:20.600Z,14.91
2022-09-10T06:38:49.756Z,14.87
2022-09-10T06:41:17.376Z,14.94
2022-09-10T06:43:52.699Z,15.00
2022-09-10T06:49:29.778Z,15.64
2022-09-10T06:51:57.954Z,17.07
2022-09-10T06:54:26.579Z,17.61
2022-09-10T06:56:58.177Z,16.68
2022-09-10T06:59:25.746Z,17.90
2022-09-10T07:01:52.991Z,18.04
2022-09-10T07:04:21.554Z,18.35
2022-09-10T07:06:49.297Z,18.67
2022-09-10T07:09:17.495Z,18.77
2022-09-10T07:12:05.073Z,18.56
2022-09-10T07:14:35.889Z,17.43
2022-09-10T07:17:06.708Z,17.66
2022-09-10T07:19:36.465Z,17.10
2022-09-10T07:22:07.163Z,16.67
2022-09-10T07:24:34.781Z,16.34
2022-09-10T07:27:06.844Z,16.57
2022-09-10T07:29:35.820Z,16.49
2022-09-10T07:32:04.586Z,16.95
2022-09-10T07:34:32.418Z,16.87
2022-09-10T07:37:02.048Z,17.01
2022-09-10T07:39:30.569Z,16.50
2022-09-10T07:42:00.426Z,16.67
2022-09-10T07:44:30.107Z,16.52
2022-09-10T07:47:03.548Z,16.36
2022-09-10T07:49:32.795Z,16.29
2022-09-10T07:52:00.384Z,16.39
2022-09-10T07:54:33.265Z,15.77
2022-09-10T07:57:01.145Z,15.70
2022-09-10T07:59:28.429Z,16.06
2022-09-10T08:02:02.076Z,16.04
2022-09-10T08:04:36.815Z,16.02
2022-09-10T08:07:07.435Z,16.01
2022-09-10T08:09:37.589Z,16.25
2022-09-10T08:12:07.848Z,16.34
2022-09-10T08:14:36.697Z,16.47
2022-09-10T08:17:04.740Z,16.52
2022-09-10T08:19:36.784Z,16.53
2022-09-10T08:22:04.390Z,16.50
2022-09-10T08:24:38.216Z,16.54
2022-09-10T08:27:05.667Z,16.40
2022-09-10T08:29:32.743Z,16.40
2022-09-10T08:32:00.709Z,16.42
2022-09-10T08:34:31.240Z,16.76
2022-09-10T08:37:09.464Z,16.88
2022-09-10T08:39:38.589Z,16.80
2022-09-10T08:42:09.484Z,16.30
2022-09-10T08:45:00.174Z,16.67
2022-09-10T08:47:56.701Z,17.20
2022-09-10T08:50:23.820Z,17.17
2022-09-10T08:53:23.180Z,17.31
2022-09-10T08:55:51.327Z,17.30
2022-09-10T08:58:28.682Z,17.68
2022-09-10T09:01:01.663Z,17.72
2022-09-10T09:03:42.971Z,16.95
2022-09-10T09:06:29.765Z,17.23
2022-09-10T09:09:01.018Z,17.68
2022-09-10T09:11:50.389Z,17.81
2022-09-10T09:14:45.317Z,18.45
2022-09-10T09:17:43.415Z,19.43
2022-09-10T09:20:34.676Z,20.37
2022-09-10T09:23:15.074Z,20.62
2022-09-10T09:25:54.228Z,20.08
2022-09-10T09:28:37.853Z,18.94
2022-09-10T09:31:14.255Z,18.84
2022-09-10T09:33:42.235Z,18.45
2022-09-10T09:36:17.228Z,17.49
2022-09-10T09:38:51.638Z,17.72
2022-09-10T09:41:53.715Z,17.53
2022-09-10T09:44:21.309Z,17.40
2022-09-10T09:46:49.897Z,16.60
2022-09-10T09:49:17.676Z,17.26
2022-09-10T09:51:48.159Z,17.38
2022-09-10T09:57:19.764Z,17.05
2022-09-10T09:59:49.552Z,17.35
2022-09-10T10:02:23.644Z,17.18
2022-09-10T10:05:26.401Z,17.35
2022-09-10T10:07:53.587Z,16.58
2022-09-10T10:10:25.705Z,17.06
2022-09-10T10:12:54.926Z,17.25
2022-09-10T10:15:54.324Z,17.48
2022-09-10T10:18:27.624Z,16.77
2022-09-10T10:21:12.905Z,17.11
2022-09-10T10:23:40.089Z,16.77
2022-09-10T10:26:25.929Z,16.93
2022-09-10T10:29:07.099Z,16.89
2022-09-10T10:31:41.660Z,16.87
2022-09-10T10:34:17.176Z,16.97
2022-09-10T10:37:05.044Z,16.98
2022-09-10T10:39:45.459Z,17.13
2022-09-10T10:42:21.626Z,17.23
2022-09-10T10:45:19.223Z,17.37
2022-09-10T10:48:01.073Z,17.24
2022-09-10T10:50:37.672Z,16.86
2022-09-10T10:53:36.203Z,17.25
2022-09-10T10:56:13.124Z,17.21
2022-09-10T10:59:13.804Z,17.28
2022-09-10T11:01:48.752Z,17.09
2022-09-10T11:04:31.834Z,17.05
2022-09-10T11:07:13.193Z,16.91
2022-09-10T11:10:01.679Z,17.22
2022-09-10T11:12:35.096Z,17.16
2022-09-10T11:15:07.417Z,17.40
2022-09-10T11:17:54.216Z,17.67
2022-09-10T11:20:29.642Z,18.13
2022-09-10T11:23:18.626Z,18.45
2022-09-10T11:26:16.066Z,18.62
2022-09-10T11:28:54.527Z,18.76
2022-09-10T11:31:50.983Z,18.78
2022-09-10T11:34:33.078Z,18.73
2022-09-10T11:37:40.312Z,18.64
2022-09-10T11:40:18.690Z,17.68
2022-09-10T11:42:52.732Z,18.41
2022-09-10T11:45:38.461Z,18.36
2022-09-10T11:48:23.533Z,18.04
2022-09-10T11:51:10.915Z,18.45
2022-09-10T11:53:37.913Z,18.44
2022-09-10T11:56:23.298Z,18.45
2022-09-10T11:59:08.688Z,18.29
2022-09-10T12:02:02.917Z,18.43
2022-09-10T12:04:50.914Z,18.38
2022-09-10T12:07:24.218Z,18.37
2022-09-10T12:10:31.690Z,18.44
2022-09-10T12:12:59.533Z,18.26
2022-09-10T12:15:34.508Z,17.52
2022-09-10T12:18:07.677Z,18.20
2022-09-10T12:20:52.841Z,17.90
2022-09-10T12:23:49.769Z,18.34
2022-09-10T12:26:20.698Z,17.80
2022-09-10T12:28:53.781Z,18.10
2022-09-10T12:31:22.129Z,17.89
2022-09-10T12:33:51.367Z,18.04
2022-09-10T12:36:27.525Z,17.90
2022-09-10T12:39:20.296Z,18.11
2022-09-10T12:41:47.430Z,17.99
2022-09-10T12:44:44.333Z,17.95
2022-09-10T12:47:17.255Z,17.83
2022-09-10T12:50:09.227Z,17.80
2022-09-10T12:53:16.547Z,17.80
2022-09-10T12:56:02.335Z,17.68
2022-09-10T12:58:38.284Z,17.63
2022-09-10T13:01:18.527Z,17.03
2022-09-10T13:03:59.755Z,17.68
2022-09-10T13:06:40.277Z,17.68
2022-09-10T13:09:28.569Z,17.47
2022-09-10T13:12:00.515Z,17.57
2022-09-10T13:14:38.275Z,17.45
2022-09-10T13:17:06.251Z,17.47
2022-09-10T13:19:35.166Z,17.49
2022-09-10T13:22:03.380Z,17.45
2022-09-10T13:24:34.504Z,17.40
2022-09-10T13:27:24.676Z,16.68
2022-09-10T13:30:31.502Z,17.37
2022-09-10T13:33:07.683Z,17.16
2022-09-10T13:35:49.655Z,17.19
2022-09-10T13:38:44.820Z,17.34
2022-09-10T13:41:32.495Z,17.27
2022-09-10T13:44:10.764Z,17.02
2022-09-10T13:46:46.658Z,17.01
2022-09-10T13:49:29.341Z,16.99
2022-09-10T13:51:59.536Z,16.85
2022-09-10T13:54:38.652Z,16.74
2022-09-10T13:57:30.178Z,16.84
2022-09-10T14:00:17.869Z,16.75
2022-09-10T14:03:12.829Z,16.71
2022-09-10T14:05:57.534Z,16.75
2022-09-10T14:08:39.435Z,16.15
2022-09-10T14:11:07.451Z,16.57
2022-09-10T14:13:43.258Z,16.53
2022-09-10T14:16:18.026Z,16.44
2022-09-10T14:18:51.732Z,16.46
2022-09-10T14:21:26.954Z,16.06
2022-09-10T14:23:56.617Z,16.19
2022-09-10T14:26:27.066Z,16.24
2022-09-10T14:28:56.592Z,16.24
2022-09-10T14:31:30.221Z,16.03
2022-09-10T14:33:59.321Z,16.19
2022-09-10T14:36:29.609Z,15.94
2022-09-10T14:39:14.339Z,16.19
2022-09-10T14:41:41.955Z,16.04
2022-09-10T14:44:24.125Z,16.05
2022-09-10T14:47:10.902Z,15.95
2022-09-10T14:49:41.513Z,15.95
2022-09-10T14:52:10.949Z,15.77
2022-09-10T14:54:38.545Z,15.66
2022-09-10T14:57:10.121Z,15.51
2022-09-10T14:59:39.040Z,15.82
2022-09-10T15:02:17.334Z,15.81
2022-09-10T15:04:44.466Z,15.77
2022-09-10T15:07:12.124Z,15.71
2022-09-10T15:09:40.807Z,15.67
2022-09-10T15:12:13.293Z,15.23
2022-09-10T15:14:40.858Z,15.35
2022-09-10T15:17:09.759Z,15.69
2022-09-10T15:19:36.822Z,15.14
2022-09-10T15:22:04.229Z,15.45
2022-09-10T15:24:52.546Z,15.21
2022-09-10T15:27:21.926Z,15.53
2022-09-10T15:29:49.396Z,15.51
2022-09-10T15:32:18.424Z,15.43
2022-09-10T15:34:45.516Z,15.37
2022-09-10T15:37:12.727Z,15.31
2022-09-10T15:39:40.201Z,15.33
2022-09-10T15:42:07.627Z,15.33
2022-09-10T15:44:34.982Z,15.10
2022-09-10T15:47:02.981Z,15.15
2022-09-10T15:49:30.016Z,15.17
2022-09-10T15:51:57.490Z,15.19
2022-09-10T15:54:24.681Z,15.05
2022-09-10T15:56:52.400Z,14.95
2022-09-10T15:59:19.494Z,14.57
2022-09-10T16:01:46.868Z,14.55
2022-09-10T16:04:15.579Z,14.83
2022-09-10T16:06:43.399Z,14.77
2022-09-10T16:09:13.711Z,14.78
2022-09-10T16:11:42.589Z,14.59
2022-09-10T16:14:13.872Z,14.13
2022-09-10T16:16:41.481Z,14.04
2022-09-10T16:19:09.487Z,14.50
2022-09-10T16:21:37.768Z,14.37
2022-09-10T16:24:06.713Z,14.26
2022-09-10T16:26:36.702Z,14.36
2022-09-10T16:29:12.977Z,13.74
2022-09-10T16:31:40.523Z,14.04
2022-09-10T16:34:11.566Z,14.07
2022-09-10T16:36:40.029Z,13.62
2022-09-10T16:39:14.088Z,13.95
2022-09-10T16:41:44.514Z,13.96
2022-09-10T16:44:14.801Z,13.81
2022-09-10T16:46:42.872Z,13.83
2022-09-10T16:49:14.459Z,13.77
2022-09-10T16:51:43.395Z,13.86
2022-09-10T16:54:11.668Z,13.57
2022-09-10T16:56:46.058Z,13.74
2022-09-10T16:59:18.642Z,13.46
2022-09-10T17:01:48.157Z,13.59
2022-09-10T17:04:26.044Z,13.57
2022-09-10T17:06:58.337Z,13.52
2022-09-10T17:09:26.248Z,13.53
2022-09-10T17:11:54.076Z,13.51
2022-09-10T17:14:21.305Z,13.33
2022-09-10T17:16:48.884Z,13.43
2022-09-10T17:19:19.578Z,13.40
2022-09-10T17:21:51.431Z,12.90
2022-09-10T17:24:22.634Z,13.21
2022-09-10T17:26:52.099Z,12.70
2022-09-10T17:29:23.377Z,13.20
2022-09-10T17:31:57.592Z,13.06
2022-09-10T17:34:26.722Z,13.13
2022-09-10T17:36:54.533Z,12.92
2022-09-10T17:39:21.701Z,13.03
2022-09-10T17:41:48.895Z,12.98
2022-09-10T17:44:16.155Z,12.92
2022-09-10T17:46:43.197Z,12.92
2022-09-10T17:49:14.339Z,12.42
2022-09-10T17:51:42.137Z,12.86
2022-09-10T17:54:09.585Z,12.72
2022-09-10T17:56:38.190Z,12.72
2022-09-10T17:59:06.194Z,12.24
2022-09-10T18:01:40.479Z,12.78
2022-09-10T18:04:12.706Z,12.55
2022-09-10T18:06:40.986Z,12.58
2022-09-10T18:09:08.705Z,12.24
2022-09-10T18:11:38.921Z,12.60
2022-09-10T18:14:07.643Z,12.43
2022-09-10T18:16:36.794Z,12.54
2022-09-10T18:19:16.004Z,12.46
2022-09-10T18:21:45.210Z,12.21
2022-09-10T18:24:23.889Z,12.51
2022-09-10T18:26:54.084Z,12.45
2022-09-10T18:29:23.768Z,12.42
2022-09-10T18:32:01.062Z,12.41
2022-09-10T18:34:31.156Z,12.04
2022-09-10T18:37:01.225Z,12.22
2022-09-10T18:39:31.079Z,12.17
2022-09-10T18:42:01.196Z,12.16
2022-09-10T18:44:31.149Z,12.01
2022-09-10T18:46:58.521Z,12.06
2022-09-10T18:49:26.927Z,11.98
2022-09-10T18:51:55.921Z,11.93
2022-09-10T18:54:24.484Z,11.96
2022-09-10T18:56:53.432Z,12.03
2022-09-10T18:59:23.636Z,11.88
2022-09-10T19:01:53.250Z,11.96
2022-09-10T19:04:23.934Z,11.83
2022-09-10T19:06:52.392Z,11.97
2022-09-10T19:09:22.172Z,11.97
2022-09-10T19:11:50.737Z,11.77
2022-09-10T19:14:23.688Z,11.95
2022-09-10T19:16:51.360Z,11.43
2022-09-10T19:19:24.386Z,11.92
2022-09-10T19:21:53.497Z,11.82
2022-09-10T19:24:32.826Z,11.85
2022-09-10T19:27:08.417Z,11.29
2022-09-10T19:29:35.636Z,11.83
2022-09-10T19:32:03.049Z,11.82
2022-09-10T19:34:30.515Z,11.71
2022-09-10T19:36:57.504Z,11.75
2022-09-10T19:39:24.746Z,11.62
2022-09-10T19:41:51.838Z,11.57
2022-09-10T19:44:18.937Z,11.22
2022-09-10T19:46:45.942Z,11.56
2022-09-10T19:49:13.136Z,11.39
2022-09-10T19:51:41.796Z,11.62
2022-09-10T19:54:10.340Z,11.60
2022-09-10T19:56:41.324Z,11.60
2022-09-10T19:59:09.990Z,11.51
2022-09-10T20:01:42.172Z,11.56
2022-09-10T20:04:11.595Z,11.49
2022-09-10T20:06:40.084Z,11.46
2022-09-10T20:09:08.707Z,11.25
2022-09-10T20:11:36.738Z,10.88
2022-09-10T20:14:08.143Z,11.46
2022-09-10T20:16:43.379Z,11.39
2022-09-10T20:19:13.317Z,11.24
2022-09-10T20:21:40.648Z,10.73
2022-09-10T20:24:08.273Z,11.24
2022-09-10T20:26:41.302Z,11.10
2022-09-10T20:29:12.686Z,11.34
2022-09-10T20:31:41.402Z,11.28
2022-09-10T20:34:12.264Z,11.31
2022-09-10T20:36:42.393Z,11.26
2022-09-10T20:39:11.392Z,11.25
2022-09-10T20:41:40.249Z,11.14
2022-09-10T20:44:08.399Z,11.09
2022-09-10T20:46:35.871Z,11.07
2022-09-10T20:49:03.396Z,10.89
2022-09-10T20:51:34.349Z,10.96
2022-09-10T20:54:02.846Z,11.09
2022-09-10T20:56:29.893Z,10.90
2022-09-10T20:58:57.617Z,11.05
2022-09-10T21:01:26.525Z,10.57
2022-09-10T21:03:57.270Z,11.00
2022-09-10T21:06:26.898Z,10.83
2022-09-10T21:08:57.106Z,10.77
2022-09-10T21:11:27.179Z,10.86
2022-09-10T21:13:56.194Z,10.94
2022-09-10T21:16:28.442Z,10.72
2022-09-10T21:19:01.452Z,10.62
2022-09-10T21:21:31.397Z,10.80
2022-09-10T21:24:00.895Z,10.77
2022-09-10T21:26:33.737Z,10.81
2022-09-10T21:29:02.530Z,10.49
2022-09-10T21:31:30.763Z,10.72
2022-09-10T21:34:02.699Z,10.69
2022-09-10T21:36:31.793Z,10.66
2022-09-10T21:39:01.652Z,10.62
2022-09-10T21:41:37.551Z,10.68
2022-09-10T21:44:08.557Z,10.62
2022-09-10T21:46:36.377Z,10.44
2022-09-10T21:49:03.657Z,10.30
2022-09-10T21:51:30.740Z,10.42
2022-09-10T21:53:59.447Z,10.00
2022-09-10T21:56:29.673Z,10.27
2022-09-10T21:58:59.903Z,9.92
2022-09-10T22:01:29.833Z,10.20
2022-09-10T22:04:00.324Z,10.39
2022-09-10T22:06:30.047Z,9.72
2022-09-10T22:09:02.711Z,10.38
2022-09-10T22:11:32.792Z,9.93
2022-09-10T22:14:06.625Z,10.21
2022-09-10T22:16:35.553Z,10.36
2022-09-10T22:19:08.171Z,10.33
2022-09-10T22:21:38.591Z,10.07
2022-09-10T22:24:06.443Z,10.10
2022-09-10T22:26:34.468Z,10.30
2022-09-10T22:29:03.340Z,9.91
2022-09-10T22:31:32.970Z,9.65
2022-09-10T22:34:06.279Z,10.28
2022-09-10T22:36:35.929Z,10.19
2022-09-10T22:39:02.829Z,10.22
2022-09-10T22:41:31.901Z,9.91
2022-09-10T22:43:59.027Z,9.94
2022-09-10T22:46:26.759Z,10.15
2022-09-10T22:48:54.417Z,10.07
2022-09-10T22:51:23.673Z,10.11
2022-09-10T22:53:52.623Z,10.07
2022-09-10T22:56:22.292Z,9.60
2022-09-10T22:58:52.709Z,9.82
2022-09-10T23:01:22.867Z,9.93
2022-09-10T23:03:50.732Z,9.82
2022-09-10T23:06:22.286Z,9.94
2022-09-10T23:08:54.923Z,9.66
2022-09-10T23:11:26.450Z,9.92
2022-09-10T23:13:59.286Z,9.81
2022-09-10T23:16:35.028Z,9.89
2022-09-10T23:19:05.060Z,9.87
2022-09-10T23:21:34.404Z,9.83
2022-09-10T23:24:03.810Z,9.17
2022-09-10T23:26:30.901Z,9.66
2022-09-10T23:28:57.790Z,9.80
2022-09-10T23:31:27.989Z,9.78
2022-09-10T23:33:58.291Z,9.77
2022-09-10T23:36:31.426Z,9.60
2022-09-10T23:38:59.046Z,9.55
2022-09-10T23:41:26.805Z,9.57
2022-09-10T23:43:54.297Z,9.70
2022-09-10T23:46:21.772Z,9.68
2022-09-10T23:48:49.517Z,9.49
2022-09-10T23:51:19.289Z,8.97
2022-09-10T23:53:47.124Z,9.18
2022-09-10T23:56:20.275Z,9.64
2022-09-10T23:58:47.864Z,9.34
